sensor_id;sensor_type;location;lat;lon;timestamp;pressure;altitude;pressure_sealevel;temperature;humidity
50710;BME280;37033;49.994;21.992;2022-07-06T00:02:07;99089.35;;;17.04;85.30
50710;BME280;37033;49.994;21.992;2022-07-06T00:04:57;99125.77;;;17.04;84.99
50710;BME280;37033;49.994;21.992;2022-07-06T00:07:47;99140.25;;;17.05;84.65
50710;BME280;37033;49.994;21.992;2022-07-06T00:10:37;99104.09;;;17.07;84.47
50710;BME280;37033;49.994;21.992;2022-07-06T00:13:28;99083.81;;;17.08;84.37
50710;BME280;37033;49.994;21.992;2022-07-06T00:16:18;99069.21;;;17.08;84.36
50710;BME280;37033;49.994;21.992;2022-07-06T00:19:09;99053.27;;;17.04;84.89
50710;BME280;37033;49.994;21.992;2022-07-06T00:22:00;99055.04;;;16.98;85.08
50710;BME280;37033;49.994;21.992;2022-07-06T00:24:51;99049.31;;;16.94;85.16
50710;BME280;37033;49.994;21.992;2022-07-06T00:27:41;99058.63;;;16.90;85.06
50710;BME280;37033;49.994;21.992;2022-07-06T00:30:32;99066.32;;;16.90;84.79
50710;BME280;37033;49.994;21.992;2022-07-06T00:33:23;99038.62;;;16.92;84.89
50710;BME280;37033;49.994;21.992;2022-07-06T00:36:13;99001.80;;;16.91;85.15
50710;BME280;37033;49.994;21.992;2022-07-06T00:39:04;98992.31;;;16.85;85.53
50710;BME280;37033;49.994;21.992;2022-07-06T00:41:54;99004.22;;;16.79;85.39
50710;BME280;37033;49.994;21.992;2022-07-06T00:44:45;99025.16;;;16.76;85.36
50710;BME280;37033;49.994;21.992;2022-07-06T00:47:35;99038.82;;;16.75;85.23
50710;BME280;37033;49.994;21.992;2022-07-06T00:50:26;99041.59;;;16.74;85.31
50710;BME280;37033;49.994;21.992;2022-07-06T00:53:17;99026.33;;;16.75;85.25
50710;BME280;37033;49.994;21.992;2022-07-06T00:56:08;99010.73;;;16.74;85.15
50710;BME280;37033;49.994;21.992;2022-07-06T00:59:00;99002.12;;;16.73;85.23
50710;BME280;37033;49.994;21.992;2022-07-06T01:01:51;99003.64;;;16.72;85.47
50710;BME280;37033;49.994;21.992;2022-07-06T01:04:42;99012.83;;;16.70;85.38
50710;BME280;37033;49.994;21.992;2022-07-06T01:07:32;99016.88;;;16.70;85.45
50710;BME280;37033;49.994;21.992;2022-07-06T01:10:24;99014.27;;;16.69;85.64
50710;BME280;37033;49.994;21.992;2022-07-06T01:13:15;99012.30;;;16.67;85.63
50710;BME280;37033;49.994;21.992;2022-07-06T01:16:07;99019.05;;;16.67;85.71
50710;BME280;37033;49.994;21.992;2022-07-06T01:18:57;98993.75;;;16.66;85.80
50710;BME280;37033;49.994;21.992;2022-07-06T01:21:47;98969.66;;;16.66;86.15
50710;BME280;37033;49.994;21.992;2022-07-06T01:24:38;98993.64;;;16.62;86.36
50710;BME280;37033;49.994;21.992;2022-07-06T01:27:29;98989.54;;;16.61;86.04
50710;BME280;37033;49.994;21.992;2022-07-06T01:30:21;98980.64;;;16.61;86.19
50710;BME280;37033;49.994;21.992;2022-07-06T01:33:11;98976.92;;;16.61;86.02
50710;BME280;37033;49.994;21.992;2022-07-06T01:36:02;98977.63;;;16.61;85.93
50710;BME280;37033;49.994;21.992;2022-07-06T01:38:54;98974.60;;;16.62;86.02
50710;BME280;37033;49.994;21.992;2022-07-06T01:41:46;98970.01;;;16.61;86.10
50710;BME280;37033;49.994;21.992;2022-07-06T01:44:37;98964.55;;;16.62;86.37
50710;BME280;37033;49.994;21.992;2022-07-06T01:47:27;98962.96;;;16.62;86.74
50710;BME280;37033;49.994;21.992;2022-07-06T01:50:18;98961.16;;;16.61;87.08
50710;BME280;37033;49.994;21.992;2022-07-06T01:53:09;98961.80;;;16.58;87.20
50710;BME280;37033;49.994;21.992;2022-07-06T01:55:59;98964.94;;;16.57;87.05
50710;BME280;37033;49.994;21.992;2022-07-06T01:58:50;98977.20;;;16.59;86.97
50710;BME280;37033;49.994;21.992;2022-07-06T02:01:40;98996.85;;;16.60;86.78
50710;BME280;37033;49.994;21.992;2022-07-06T02:04:30;99015.48;;;16.62;86.63
50710;BME280;37033;49.994;21.992;2022-07-06T02:07:21;99034.98;;;16.65;86.44
50710;BME280;37033;49.994;21.992;2022-07-06T02:10:11;99037.38;;;16.67;86.23
50710;BME280;37033;49.994;21.992;2022-07-06T02:13:02;99039.17;;;16.70;86.35
50710;BME280;37033;49.994;21.992;2022-07-06T02:15:53;99035.61;;;16.70;86.71
50710;BME280;37033;49.994;21.992;2022-07-06T02:18:43;99034.54;;;16.66;87.07
50710;BME280;37033;49.994;21.992;2022-07-06T02:21:34;99040.63;;;16.62;87.22
50710;BME280;37033;49.994;21.992;2022-07-06T02:24:24;99047.45;;;16.59;87.28
50710;BME280;37033;49.994;21.992;2022-07-06T02:27:15;99053.17;;;16.58;87.40
50710;BME280;37033;49.994;21.992;2022-07-06T02:30:07;99063.38;;;16.58;87.60
50710;BME280;37033;49.994;21.992;2022-07-06T02:32:58;99067.13;;;16.58;87.59
50710;BME280;37033;49.994;21.992;2022-07-06T02:35:48;99073.98;;;16.58;87.49
50710;BME280;37033;49.994;21.992;2022-07-06T02:38:39;99081.35;;;16.62;87.48
50710;BME280;37033;49.994;21.992;2022-07-06T02:41:30;99088.67;;;16.64;87.23
50710;BME280;37033;49.994;21.992;2022-07-06T02:44:20;99091.27;;;16.67;87.04
50710;BME280;37033;49.994;21.992;2022-07-06T02:47:11;99094.84;;;16.70;86.92
50710;BME280;37033;49.994;21.992;2022-07-06T02:50:02;99091.89;;;16.73;86.78
50710;BME280;37033;49.994;21.992;2022-07-06T02:52:52;99086.60;;;16.75;86.89
50710;BME280;37033;49.994;21.992;2022-07-06T02:55:43;99084.56;;;16.75;87.21
50710;BME280;37033;49.994;21.992;2022-07-06T02:58:33;99083.08;;;16.75;87.31
50710;BME280;37033;49.994;21.992;2022-07-06T03:01:24;99079.31;;;16.73;87.68
50710;BME280;37033;49.994;21.992;2022-07-06T03:04:14;99081.26;;;16.71;87.79
50710;BME280;37033;49.994;21.992;2022-07-06T03:07:06;99077.65;;;16.70;87.89
50710;BME280;37033;49.994;21.992;2022-07-06T03:09:56;99074.59;;;16.69;87.74
50710;BME280;37033;49.994;21.992;2022-07-06T03:12:47;99073.07;;;16.67;87.96
50710;BME280;37033;49.994;21.992;2022-07-06T03:15:37;99075.13;;;16.64;88.08
50710;BME280;37033;49.994;21.992;2022-07-06T03:18:28;99081.35;;;16.62;88.14
50710;BME280;37033;49.994;21.992;2022-07-06T03:21:18;99085.44;;;16.58;88.05
50710;BME280;37033;49.994;21.992;2022-07-06T03:24:09;99083.54;;;16.56;88.16
50710;BME280;37033;49.994;21.992;2022-07-06T03:26:59;99090.95;;;16.55;88.23
50710;BME280;37033;49.994;21.992;2022-07-06T03:29:50;99089.70;;;16.54;88.34
50710;BME280;37033;49.994;21.992;2022-07-06T03:32:40;99092.52;;;16.53;88.19
50710;BME280;37033;49.994;21.992;2022-07-06T03:35:31;99094.98;;;16.52;88.42
50710;BME280;37033;49.994;21.992;2022-07-06T03:38:22;99093.95;;;16.52;88.55
50710;BME280;37033;49.994;21.992;2022-07-06T03:41:13;99094.77;;;16.53;88.51
50710;BME280;37033;49.994;21.992;2022-07-06T03:44:04;99093.29;;;16.53;88.45
50710;BME280;37033;49.994;21.992;2022-07-06T03:46:54;99094.98;;;16.53;88.42
50710;BME280;37033;49.994;21.992;2022-07-06T03:49:45;99094.09;;;16.54;88.62
50710;BME280;37033;49.994;21.992;2022-07-06T03:52:36;99094.25;;;16.55;88.52
50710;BME280;37033;49.994;21.992;2022-07-06T03:55:28;99098.91;;;16.55;88.50
50710;BME280;37033;49.994;21.992;2022-07-06T03:58:19;99104.34;;;16.55;88.57
50710;BME280;37033;49.994;21.992;2022-07-06T04:01:10;99104.17;;;16.56;88.66
50710;BME280;37033;49.994;21.992;2022-07-06T04:04:01;99106.27;;;16.56;88.71
50710;BME280;37033;49.994;21.992;2022-07-06T04:06:51;99106.42;;;16.57;88.83
50710;BME280;37033;49.994;21.992;2022-07-06T04:09:42;99101.27;;;16.56;88.78
50710;BME280;37033;49.994;21.992;2022-07-06T04:12:32;99107.30;;;16.56;88.72
50710;BME280;37033;49.994;21.992;2022-07-06T04:15:29;99107.09;;;16.55;88.84
50710;BME280;37033;49.994;21.992;2022-07-06T04:18:21;99115.17;;;16.54;88.86
50710;BME280;37033;49.994;21.992;2022-07-06T04:21:12;99118.36;;;16.53;88.79
50710;BME280;37033;49.994;21.992;2022-07-06T04:24:05;99118.77;;;16.51;88.81
50710;BME280;37033;49.994;21.992;2022-07-06T04:26:55;99125.24;;;16.50;89.00
50710;BME280;37033;49.994;21.992;2022-07-06T04:29:46;99124.33;;;16.47;88.86
50710;BME280;37033;49.994;21.992;2022-07-06T04:32:36;99130.98;;;16.47;88.85
50710;BME280;37033;49.994;21.992;2022-07-06T04:35:27;99132.47;;;16.46;88.67
50710;BME280;37033;49.994;21.992;2022-07-06T04:38:18;99134.67;;;16.44;88.45
50710;BME280;37033;49.994;21.992;2022-07-06T04:41:10;99132.27;;;16.43;88.22
50710;BME280;37033;49.994;21.992;2022-07-06T04:44:00;99138.96;;;16.43;87.97
50710;BME280;37033;49.994;21.992;2022-07-06T04:46:50;99141.73;;;16.46;87.96
50710;BME280;37033;49.994;21.992;2022-07-06T04:49:41;99148.74;;;16.47;88.08
50710;BME280;37033;49.994;21.992;2022-07-06T04:52:31;99149.23;;;16.43;87.99
50710;BME280;37033;49.994;21.992;2022-07-06T04:55:23;99149.69;;;16.41;87.95
50710;BME280;37033;49.994;21.992;2022-07-06T04:58:13;99152.21;;;16.37;87.92
50710;BME280;37033;49.994;21.992;2022-07-06T05:01:03;99154.98;;;16.36;87.81
50710;BME280;37033;49.994;21.992;2022-07-06T05:03:54;99159.33;;;16.34;87.79
50710;BME280;37033;49.994;21.992;2022-07-06T05:06:45;99161.84;;;16.30;87.70
50710;BME280;37033;49.994;21.992;2022-07-06T05:09:36;99167.89;;;16.26;87.70
50710;BME280;37033;49.994;21.992;2022-07-06T05:12:26;99171.45;;;16.25;87.83
50710;BME280;37033;49.994;21.992;2022-07-06T05:15:16;99176.95;;;16.24;87.86
50710;BME280;37033;49.994;21.992;2022-07-06T05:18:08;99176.70;;;16.20;87.83
50710;BME280;37033;49.994;21.992;2022-07-06T05:20:58;99170.79;;;16.18;87.79
50710;BME280;37033;49.994;21.992;2022-07-06T05:23:49;99176.88;;;16.19;87.93
50710;BME280;37033;49.994;21.992;2022-07-06T05:26:40;99187.36;;;16.18;87.78
50710;BME280;37033;49.994;21.992;2022-07-06T05:29:30;99182.64;;;16.17;87.82
50710;BME280;37033;49.994;21.992;2022-07-06T05:32:21;99182.25;;;16.18;87.79
50710;BME280;37033;49.994;21.992;2022-07-06T05:35:11;99182.24;;;16.20;87.91
50710;BME280;37033;49.994;21.992;2022-07-06T05:38:02;99185.10;;;16.19;87.83
50710;BME280;37033;49.994;21.992;2022-07-06T05:40:53;99190.23;;;16.17;87.83
50710;BME280;37033;49.994;21.992;2022-07-06T05:43:45;99198.77;;;16.15;87.85
50710;BME280;37033;49.994;21.992;2022-07-06T05:46:35;99196.27;;;16.14;87.93
50710;BME280;37033;49.994;21.992;2022-07-06T05:49:26;99199.83;;;16.14;87.95
50710;BME280;37033;49.994;21.992;2022-07-06T05:52:35;99199.21;;;16.16;87.91
50710;BME280;37033;49.994;21.992;2022-07-06T05:55:26;99200.02;;;16.20;87.71
50710;BME280;37033;49.994;21.992;2022-07-06T05:58:17;99205.96;;;16.24;87.69
50710;BME280;37033;49.994;21.992;2022-07-06T06:01:07;99213.25;;;16.27;87.55
50710;BME280;37033;49.994;21.992;2022-07-06T06:03:58;99214.00;;;16.28;87.44
50710;BME280;37033;49.994;21.992;2022-07-06T06:06:49;99224.08;;;16.32;87.51
50710;BME280;37033;49.994;21.992;2022-07-06T06:09:39;99221.05;;;16.33;87.31
50710;BME280;37033;49.994;21.992;2022-07-06T06:12:29;99225.21;;;16.35;87.22
50710;BME280;37033;49.994;21.992;2022-07-06T06:15:20;99226.45;;;16.38;87.29
50710;BME280;37033;49.994;21.992;2022-07-06T06:18:11;99228.60;;;16.39;87.12
50710;BME280;37033;49.994;21.992;2022-07-06T06:21:02;99232.60;;;16.38;87.05
50710;BME280;37033;49.994;21.992;2022-07-06T06:23:53;99236.28;;;16.38;86.97
50710;BME280;37033;49.994;21.992;2022-07-06T06:26:44;99233.52;;;16.41;86.83
50710;BME280;37033;49.994;21.992;2022-07-06T06:29:34;99231.56;;;16.46;86.65
50710;BME280;37033;49.994;21.992;2022-07-06T06:32:25;99230.07;;;16.48;86.55
50710;BME280;37033;49.994;21.992;2022-07-06T06:35:15;99229.09;;;16.53;86.48
50710;BME280;37033;49.994;21.992;2022-07-06T06:38:06;99235.63;;;16.61;86.25
50710;BME280;37033;49.994;21.992;2022-07-06T06:40:56;99241.73;;;16.70;86.03
50710;BME280;37033;49.994;21.992;2022-07-06T06:43:47;99240.74;;;16.75;85.66
50710;BME280;37033;49.994;21.992;2022-07-06T06:46:38;99243.63;;;16.84;85.59
50710;BME280;37033;49.994;21.992;2022-07-06T06:49:29;99248.55;;;17.00;85.29
50710;BME280;37033;49.994;21.992;2022-07-06T06:52:19;99250.13;;;17.09;84.69
50710;BME280;37033;49.994;21.992;2022-07-06T06:55:10;99263.70;;;17.13;84.63
50710;BME280;37033;49.994;21.992;2022-07-06T06:58:01;99273.51;;;17.17;83.68
50710;BME280;37033;49.994;21.992;2022-07-06T07:00:52;99276.70;;;17.15;83.22
50710;BME280;37033;49.994;21.992;2022-07-06T07:03:42;99281.73;;;17.12;82.83
50710;BME280;37033;49.994;21.992;2022-07-06T07:06:32;99285.58;;;17.12;82.81
50710;BME280;37033;49.994;21.992;2022-07-06T07:09:23;99280.44;;;17.16;82.95
50710;BME280;37033;49.994;21.992;2022-07-06T07:12:14;99280.18;;;17.27;82.73
50710;BME280;37033;49.994;21.992;2022-07-06T07:15:07;99282.75;;;17.34;82.33
50710;BME280;37033;49.994;21.992;2022-07-06T07:17:57;99289.09;;;17.39;81.99
50710;BME280;37033;49.994;21.992;2022-07-06T07:20:48;99288.62;;;17.57;81.91
50710;BME280;37033;49.994;21.992;2022-07-06T07:23:39;99292.39;;;17.89;81.49
50710;BME280;37033;49.994;21.992;2022-07-06T07:26:31;99289.02;;;18.05;79.46
50710;BME280;37033;49.994;21.992;2022-07-06T07:29:21;99290.63;;;18.12;77.88
50710;BME280;37033;49.994;21.992;2022-07-06T07:32:11;99291.15;;;18.28;78.41
50710;BME280;37033;49.994;21.992;2022-07-06T07:35:02;99296.23;;;18.44;77.56
50710;BME280;37033;49.994;21.992;2022-07-06T07:37:53;99301.35;;;18.48;76.93
50710;BME280;37033;49.994;21.992;2022-07-06T07:40:44;99308.08;;;18.56;75.38
50710;BME280;37033;49.994;21.992;2022-07-06T07:43:34;99299.33;;;18.67;74.14
50710;BME280;37033;49.994;21.992;2022-07-06T07:46:25;99307.10;;;18.79;73.33
50710;BME280;37033;49.994;21.992;2022-07-06T07:49:15;99310.39;;;18.86;73.38
50710;BME280;37033;49.994;21.992;2022-07-06T07:52:07;99309.95;;;18.92;73.40
50710;BME280;37033;49.994;21.992;2022-07-06T07:54:58;99315.58;;;18.98;72.62
50710;BME280;37033;49.994;21.992;2022-07-06T07:57:48;99315.68;;;19.06;72.16
50710;BME280;37033;49.994;21.992;2022-07-06T08:00:39;99311.05;;;19.24;71.91
50710;BME280;37033;49.994;21.992;2022-07-06T08:03:30;99310.30;;;19.48;70.99
50710;BME280;37033;49.994;21.992;2022-07-06T08:06:20;99311.96;;;19.71;69.95
50710;BME280;37033;49.994;21.992;2022-07-06T08:09:11;99322.73;;;19.83;69.83
50710;BME280;37033;49.994;21.992;2022-07-06T08:12:02;99323.19;;;19.82;68.47
50710;BME280;37033;49.994;21.992;2022-07-06T08:14:53;99327.34;;;19.75;67.75
50710;BME280;37033;49.994;21.992;2022-07-06T08:17:45;99328.52;;;19.73;65.92
50710;BME280;37033;49.994;21.992;2022-07-06T08:20:36;99327.27;;;19.73;65.39
50710;BME280;37033;49.994;21.992;2022-07-06T08:23:27;99326.20;;;19.82;66.17
50710;BME280;37033;49.994;21.992;2022-07-06T08:26:17;99328.95;;;20.01;66.45
50710;BME280;37033;49.994;21.992;2022-07-06T08:29:08;99335.51;;;20.22;65.38
50710;BME280;37033;49.994;21.992;2022-07-06T08:32:01;99333.84;;;20.30;64.44
50710;BME280;37033;49.994;21.992;2022-07-06T08:34:52;99333.71;;;20.42;64.73
50710;BME280;37033;49.994;21.992;2022-07-06T08:37:42;99333.41;;;20.59;64.08
50710;BME280;37033;49.994;21.992;2022-07-06T08:40:34;99340.37;;;20.70;62.69
50710;BME280;37033;49.994;21.992;2022-07-06T08:43:25;99327.98;;;20.86;62.12
50710;BME280;37033;49.994;21.992;2022-07-06T08:46:16;99337.55;;;21.02;61.72
50710;BME280;37033;49.994;21.992;2022-07-06T08:49:07;99334.34;;;21.00;61.89
50710;BME280;37033;49.994;21.992;2022-07-06T08:51:58;99339.81;;;21.02;63.06
50710;BME280;37033;49.994;21.992;2022-07-06T08:54:49;99349.36;;;21.07;62.94
50710;BME280;37033;49.994;21.992;2022-07-06T08:57:40;99351.86;;;21.12;62.96
50710;BME280;37033;49.994;21.992;2022-07-06T09:00:31;99352.73;;;21.26;61.64
50710;BME280;37033;49.994;21.992;2022-07-06T09:03:22;99353.52;;;21.40;59.66
50710;BME280;37033;49.994;21.992;2022-07-06T09:06:17;99350.64;;;21.42;59.53
50710;BME280;37033;49.994;21.992;2022-07-06T09:09:11;99354.38;;;21.46;59.26
50710;BME280;37033;49.994;21.992;2022-07-06T09:12:11;99356.73;;;21.41;58.53
50710;BME280;37033;49.994;21.992;2022-07-06T09:15:03;99359.85;;;21.44;58.43
50710;BME280;37033;49.994;21.992;2022-07-06T09:17:57;99363.31;;;21.55;58.72
50710;BME280;37033;49.994;21.992;2022-07-06T09:20:47;99372.68;;;21.60;57.74
50710;BME280;37033;49.994;21.992;2022-07-06T09:23:38;99371.57;;;21.46;57.78
50710;BME280;37033;49.994;21.992;2022-07-06T09:26:29;99372.30;;;21.33;58.11
50710;BME280;37033;49.994;21.992;2022-07-06T09:29:19;99376.40;;;21.39;58.02
50710;BME280;37033;49.994;21.992;2022-07-06T09:32:20;99377.82;;;21.46;57.03
50710;BME280;37033;49.994;21.992;2022-07-06T09:35:23;99379.95;;;21.59;57.22
50710;BME280;37033;49.994;21.992;2022-07-06T09:38:15;99375.86;;;21.60;56.91
50710;BME280;37033;49.994;21.992;2022-07-06T09:41:07;99379.27;;;21.48;56.75
50710;BME280;37033;49.994;21.992;2022-07-06T09:43:58;99387.84;;;21.46;57.63
50710;BME280;37033;49.994;21.992;2022-07-06T09:46:49;99385.82;;;21.50;56.30
50710;BME280;37033;49.994;21.992;2022-07-06T09:49:41;99387.27;;;21.53;56.33
50710;BME280;37033;49.994;21.992;2022-07-06T09:52:35;99389.14;;;21.60;56.50
50710;BME280;37033;49.994;21.992;2022-07-06T09:55:25;99388.23;;;21.68;56.27
50710;BME280;37033;49.994;21.992;2022-07-06T09:58:17;99397.11;;;21.84;56.45
50710;BME280;37033;49.994;21.992;2022-07-06T10:01:07;99395.05;;;22.02;56.02
50710;BME280;37033;49.994;21.992;2022-07-06T10:03:59;99384.91;;;22.19;56.05
50710;BME280;37033;49.994;21.992;2022-07-06T10:06:50;99390.31;;;22.17;55.06
50710;BME280;37033;49.994;21.992;2022-07-06T10:09:41;99390.46;;;22.01;54.58
50710;BME280;37033;49.994;21.992;2022-07-06T10:12:32;99387.62;;;22.04;54.30
50710;BME280;37033;49.994;21.992;2022-07-06T10:15:23;99383.97;;;22.23;54.72
50710;BME280;37033;49.994;21.992;2022-07-06T10:18:15;99384.20;;;22.53;54.49
50710;BME280;37033;49.994;21.992;2022-07-06T10:21:06;99382.86;;;22.63;53.32
50710;BME280;37033;49.994;21.992;2022-07-06T10:23:57;99380.90;;;22.62;52.20
50710;BME280;37033;49.994;21.992;2022-07-06T10:26:49;99372.41;;;22.70;52.49
50710;BME280;37033;49.994;21.992;2022-07-06T10:29:40;99376.73;;;22.66;52.14
50710;BME280;37033;49.994;21.992;2022-07-06T10:32:31;99363.64;;;22.67;52.48
50710;BME280;37033;49.994;21.992;2022-07-06T10:35:22;99364.58;;;22.89;52.18
50710;BME280;37033;49.994;21.992;2022-07-06T10:38:13;99373.73;;;23.01;51.39
50710;BME280;37033;49.994;21.992;2022-07-06T10:41:05;99364.95;;;23.08;51.36
50710;BME280;37033;49.994;21.992;2022-07-06T10:43:56;99369.88;;;23.08;50.91
50710;BME280;37033;49.994;21.992;2022-07-06T10:46:54;99378.10;;;23.04;50.94
50710;BME280;37033;49.994;21.992;2022-07-06T10:49:51;99368.54;;;23.03;50.80
50710;BME280;37033;49.994;21.992;2022-07-06T10:52:57;99363.48;;;23.16;51.51
50710;BME280;37033;49.994;21.992;2022-07-06T10:55:49;99367.13;;;23.42;50.48
50710;BME280;37033;49.994;21.992;2022-07-06T10:58:46;99367.63;;;23.57;49.67
50710;BME280;37033;49.994;21.992;2022-07-06T11:01:37;99366.42;;;23.73;48.65
50710;BME280;37033;49.994;21.992;2022-07-06T11:04:32;99376.20;;;23.80;48.39
50710;BME280;37033;49.994;21.992;2022-07-06T11:07:22;99372.88;;;23.72;47.63
50710;BME280;37033;49.994;21.992;2022-07-06T11:10:13;99370.66;;;23.63;48.50
50710;BME280;37033;49.994;21.992;2022-07-06T11:13:04;99373.05;;;23.66;48.54
50710;BME280;37033;49.994;21.992;2022-07-06T11:16:02;99364.33;;;23.86;48.12
50710;BME280;37033;49.994;21.992;2022-07-06T11:19:01;99375.36;;;24.00;46.18
50710;BME280;37033;49.994;21.992;2022-07-06T11:21:53;99371.38;;;23.86;45.61
50710;BME280;37033;49.994;21.992;2022-07-06T11:24:46;99369.23;;;23.77;46.67
50710;BME280;37033;49.994;21.992;2022-07-06T11:27:38;99363.41;;;23.97;47.22
50710;BME280;37033;49.994;21.992;2022-07-06T11:30:29;99364.11;;;24.22;46.38
50710;BME280;37033;49.994;21.992;2022-07-06T11:33:31;99357.09;;;24.39;46.17
50710;BME280;37033;49.994;21.992;2022-07-06T11:36:22;99358.54;;;24.59;45.19
50710;BME280;37033;49.994;21.992;2022-07-06T11:39:13;99362.95;;;24.66;44.09
50710;BME280;37033;49.994;21.992;2022-07-06T11:42:05;99359.42;;;24.59;43.61
50710;BME280;37033;49.994;21.992;2022-07-06T11:44:56;99365.13;;;24.51;43.60
50710;BME280;37033;49.994;21.992;2022-07-06T11:47:46;99358.29;;;24.32;44.20
50710;BME280;37033;49.994;21.992;2022-07-06T11:50:37;99353.63;;;24.30;45.04
50710;BME280;37033;49.994;21.992;2022-07-06T11:53:28;99351.97;;;24.50;44.58
50710;BME280;37033;49.994;21.992;2022-07-06T11:56:21;99351.86;;;24.59;44.01
50710;BME280;37033;49.994;21.992;2022-07-06T11:59:15;99354.08;;;24.72;43.39
50710;BME280;37033;49.994;21.992;2022-07-06T12:02:07;99358.42;;;24.88;42.40
50710;BME280;37033;49.994;21.992;2022-07-06T12:04:59;99355.27;;;24.75;42.27
50710;BME280;37033;49.994;21.992;2022-07-06T12:08:05;99352.02;;;24.73;42.91
50710;BME280;37033;49.994;21.992;2022-07-06T12:10:56;99344.80;;;24.83;42.72
50710;BME280;37033;49.994;21.992;2022-07-06T12:13:47;99341.05;;;24.93;42.60
50710;BME280;37033;49.994;21.992;2022-07-06T12:16:38;99350.66;;;24.86;42.60
50710;BME280;37033;49.994;21.992;2022-07-06T12:19:28;99344.81;;;24.96;42.47
50710;BME280;37033;49.994;21.992;2022-07-06T12:22:25;99343.29;;;25.02;42.47
50710;BME280;37033;49.994;21.992;2022-07-06T12:25:33;99337.64;;;25.00;43.05
50710;BME280;37033;49.994;21.992;2022-07-06T12:28:26;99339.70;;;25.01;42.55
50710;BME280;37033;49.994;21.992;2022-07-06T12:31:34;99336.46;;;24.97;42.14
50710;BME280;37033;49.994;21.992;2022-07-06T12:34:26;99343.46;;;25.17;42.26
50710;BME280;37033;49.994;21.992;2022-07-06T12:37:17;99332.51;;;25.34;42.18
50710;BME280;37033;49.994;21.992;2022-07-06T12:40:15;99326.46;;;25.63;42.20
50710;BME280;37033;49.994;21.992;2022-07-06T12:43:06;99332.63;;;25.80;40.49
50710;BME280;37033;49.994;21.992;2022-07-06T12:45:56;99330.20;;;25.74;40.74
50710;BME280;37033;49.994;21.992;2022-07-06T12:48:54;99330.34;;;25.65;40.47
50710;BME280;37033;49.994;21.992;2022-07-06T12:52:02;99324.15;;;25.65;40.39
50710;BME280;37033;49.994;21.992;2022-07-06T12:54:53;99322.40;;;25.56;40.85
50710;BME280;37033;49.994;21.992;2022-07-06T12:57:47;99326.85;;;25.40;40.84
50710;BME280;37033;49.994;21.992;2022-07-06T13:00:47;99327.32;;;25.29;40.86
50710;BME280;37033;49.994;21.992;2022-07-06T13:03:41;99330.57;;;25.02;40.63
50710;BME280;37033;49.994;21.992;2022-07-06T13:06:35;99328.83;;;24.77;41.69
50710;BME280;37033;49.994;21.992;2022-07-06T13:09:26;99329.81;;;24.61;41.89
50710;BME280;37033;49.994;21.992;2022-07-06T13:12:17;99336.89;;;24.42;41.75
50710;BME280;37033;49.994;21.992;2022-07-06T13:15:09;99339.92;;;24.19;42.22
50710;BME280;37033;49.994;21.992;2022-07-06T13:18:00;99334.38;;;24.00;42.78
50710;BME280;37033;49.994;21.992;2022-07-06T13:20:51;99336.64;;;23.90;43.57
50710;BME280;37033;49.994;21.992;2022-07-06T13:23:42;99338.64;;;23.87;43.67
50710;BME280;37033;49.994;21.992;2022-07-06T13:26:33;99343.01;;;23.68;43.95
50710;BME280;37033;49.994;21.992;2022-07-06T13:29:27;99347.64;;;23.62;44.64
50710;BME280;37033;49.994;21.992;2022-07-06T13:32:19;99344.25;;;23.61;44.72
50710;BME280;37033;49.994;21.992;2022-07-06T13:35:10;99344.40;;;23.53;44.31
50710;BME280;37033;49.994;21.992;2022-07-06T13:38:01;99342.00;;;23.45;44.13
50710;BME280;37033;49.994;21.992;2022-07-06T13:40:51;99342.71;;;23.42;44.37
50710;BME280;37033;49.994;21.992;2022-07-06T13:43:43;99343.24;;;23.40;44.08
50710;BME280;37033;49.994;21.992;2022-07-06T13:46:34;99342.87;;;23.29;43.77
50710;BME280;37033;49.994;21.992;2022-07-06T13:49:25;99346.14;;;23.18;44.05
50710;BME280;37033;49.994;21.992;2022-07-06T13:52:16;99346.00;;;23.06;44.06
50710;BME280;37033;49.994;21.992;2022-07-06T13:55:09;99349.13;;;22.97;44.94
50710;BME280;37033;49.994;21.992;2022-07-06T13:57:59;99356.37;;;22.92;45.64
50710;BME280;37033;49.994;21.992;2022-07-06T14:00:50;99366.61;;;22.73;48.57
50710;BME280;37033;49.994;21.992;2022-07-06T14:03:41;99376.45;;;22.31;51.14
50710;BME280;37033;49.994;21.992;2022-07-06T14:06:32;99374.77;;;21.94;52.86
50710;BME280;37033;49.994;21.992;2022-07-06T14:09:23;99386.90;;;21.61;53.88
50710;BME280;37033;49.994;21.992;2022-07-06T14:12:13;99391.02;;;21.25;55.16
50710;BME280;37033;49.994;21.992;2022-07-06T14:15:05;99396.47;;;21.00;56.16
50710;BME280;37033;49.994;21.992;2022-07-06T14:17:55;99400.67;;;20.76;57.24
50710;BME280;37033;49.994;21.992;2022-07-06T14:20:46;99398.38;;;20.53;58.31
50710;BME280;37033;49.994;21.992;2022-07-06T14:23:38;99400.95;;;20.28;58.87
50710;BME280;37033;49.994;21.992;2022-07-06T14:26:28;99403.00;;;20.11;59.77
50710;BME280;37033;49.994;21.992;2022-07-06T14:29:19;99408.88;;;19.96;60.09
50710;BME280;37033;49.994;21.992;2022-07-06T14:32:10;99409.39;;;19.89;60.49
50710;BME280;37033;49.994;21.992;2022-07-06T14:35:00;99404.70;;;19.80;60.97
50710;BME280;37033;49.994;21.992;2022-07-06T14:37:51;99403.19;;;19.71;61.48
50710;BME280;37033;49.994;21.992;2022-07-06T14:40:42;99404.71;;;19.65;61.70
50710;BME280;37033;49.994;21.992;2022-07-06T14:43:33;99403.91;;;19.60;61.86
50710;BME280;37033;49.994;21.992;2022-07-06T14:46:25;99402.23;;;19.57;62.21
50710;BME280;37033;49.994;21.992;2022-07-06T14:49:16;99401.52;;;19.54;61.98
50710;BME280;37033;49.994;21.992;2022-07-06T14:52:07;99399.70;;;19.57;62.16
50710;BME280;37033;49.994;21.992;2022-07-06T14:54:59;99398.67;;;19.59;61.99
50710;BME280;37033;49.994;21.992;2022-07-06T14:57:52;99398.15;;;19.61;62.07